createdAt,value
2023-05-14T00:00:14.598Z,17.55
2023-05-14T00:02:45.062Z,17.53
2023-05-14T00:05:15.541Z,17.52
2023-05-14T00:07:46.032Z,17.50
2023-05-14T00:10:17.745Z,17.50
2023-05-14T00:12:50.749Z,17.48
2023-05-14T00:15:20.959Z,17.48
2023-05-14T00:17:51.281Z,17.47
2023-05-14T00:20:21.852Z,17.45
2023-05-14T00:22:54.920Z,17.40
2023-05-14T00:25:24.937Z,17.37
2023-05-14T00:27:57.668Z,17.36
2023-05-14T00:30:27.734Z,17.36
2023-05-14T00:32:57.950Z,17.38
2023-05-14T00:35:28.233Z,17.37
2023-05-14T00:37:58.233Z,17.36
2023-05-14T00:40:30.134Z,17.35
2023-05-14T00:43:02.888Z,17.33
2023-05-14T00:45:33.099Z,17.34
2023-05-14T00:48:03.644Z,17.32
2023-05-14T00:50:34.715Z,17.30
2023-05-14T00:53:10.208Z,17.30
2023-05-14T00:55:41.309Z,17.26
2023-05-14T00:58:16.268Z,17.22
2023-05-14T01:00:46.337Z,17.18
2023-05-14T01:03:17.489Z,17.16
2023-05-14T01:05:57.156Z,17.13
2023-05-14T01:08:36.128Z,17.10
2023-05-14T01:11:09.918Z,17.07
2023-05-14T01:13:53.121Z,17.00
2023-05-14T01:16:23.716Z,16.99
2023-05-14T01:18:55.094Z,16.93
2023-05-14T01:21:40.718Z,16.91
2023-05-14T01:24:11.472Z,16.93
2023-05-14T01:26:41.685Z,16.92
2023-05-14T01:29:22.208Z,16.93
2023-05-14T01:31:56.904Z,16.93
2023-05-14T01:34:29.422Z,16.95
2023-05-14T01:37:03.602Z,16.95
2023-05-14T01:39:37.955Z,16.94
2023-05-14T01:42:10.139Z,16.92
2023-05-14T01:44:40.589Z,16.95
2023-05-14T01:47:10.782Z,16.91
2023-05-14T01:49:41.272Z,16.93
2023-05-14T01:52:14.049Z,16.92
2023-05-14T01:54:44.132Z,16.94
2023-05-14T01:57:14.493Z,16.96
2023-05-14T01:59:44.522Z,16.93
2023-05-14T02:02:14.902Z,16.92
2023-05-14T02:04:45.416Z,16.93
2023-05-14T02:07:18.089Z,16.97
2023-05-14T02:09:49.131Z,17.02
2023-05-14T02:12:19.325Z,17.02
2023-05-14T02:14:49.616Z,17.01
2023-05-14T02:17:19.896Z,17.03
2023-05-14T02:19:50.161Z,17.06
2023-05-14T02:22:23.000Z,17.09
2023-05-14T02:24:53.307Z,17.14
2023-05-14T02:27:23.276Z,17.17
2023-05-14T02:29:53.346Z,17.18
2023-05-14T02:32:23.578Z,17.16
2023-05-14T02:34:53.906Z,17.17
2023-05-14T02:37:26.570Z,17.19
2023-05-14T02:39:56.749Z,17.18
2023-05-14T02:42:27.194Z,17.19
2023-05-14T02:44:57.289Z,17.24
2023-05-14T02:47:27.868Z,17.28
2023-05-14T02:49:57.949Z,17.32
2023-05-14T02:52:30.581Z,17.35
2023-05-14T02:55:00.715Z,17.34
2023-05-14T02:57:30.869Z,17.32
2023-05-14T03:00:00.945Z,17.33
2023-05-14T03:02:36.015Z,17.34
2023-05-14T03:05:06.848Z,17.33
2023-05-14T03:07:39.597Z,17.34
2023-05-14T03:10:10.724Z,17.35
2023-05-14T03:12:41.066Z,17.34
2023-05-14T03:15:14.623Z,17.34
2023-05-14T03:17:44.728Z,17.37
2023-05-14T03:20:16.194Z,17.38
2023-05-14T03:22:48.988Z,17.41
2023-05-14T03:25:19.340Z,17.46
2023-05-14T03:27:50.274Z,17.51
2023-05-14T03:30:20.715Z,17.53
2023-05-14T03:32:51.989Z,17.54
2023-05-14T03:35:22.221Z,17.55
2023-05-14T03:37:55.372Z,17.58
2023-05-14T03:40:25.706Z,17.59
2023-05-14T03:42:56.220Z,17.58
2023-05-14T03:45:27.566Z,17.59
2023-05-14T03:48:02.066Z,17.60
2023-05-14T03:50:36.280Z,17.64
2023-05-14T03:53:09.043Z,17.63
2023-05-14T03:55:39.529Z,17.60
2023-05-14T03:58:14.577Z,17.62
2023-05-14T04:00:45.265Z,17.58
2023-05-14T04:03:15.401Z,17.58
2023-05-14T04:05:46.273Z,17.52
2023-05-14T04:08:19.181Z,17.52
2023-05-14T04:10:49.565Z,17.57
2023-05-14T04:13:19.708Z,17.58
2023-05-14T04:15:49.820Z,17.60
2023-05-14T04:18:20.094Z,17.62
2023-05-14T04:20:52.788Z,17.60
2023-05-14T04:23:25.848Z,17.62
2023-05-14T04:25:55.922Z,17.66
2023-05-14T04:28:26.025Z,17.71
2023-05-14T04:30:56.020Z,17.69
2023-05-14T04:33:26.050Z,17.73
2023-05-14T04:35:56.193Z,17.77
2023-05-14T04:38:28.910Z,17.88
2023-05-14T04:40:58.887Z,18.00
2023-05-14T04:43:28.940Z,18.17
2023-05-14T04:45:58.997Z,18.33
2023-05-14T04:48:29.196Z,18.54
2023-05-14T04:50:59.169Z,18.74
2023-05-14T04:53:31.851Z,18.99
2023-05-14T04:56:01.871Z,19.27
2023-05-14T04:58:34.603Z,19.43
2023-05-14T05:01:06.334Z,19.48
2023-05-14T05:03:36.522Z,19.28
2023-05-14T05:06:06.916Z,19.12
2023-05-14T05:08:40.072Z,18.96
2023-05-14T05:11:10.472Z,18.86
2023-05-14T05:13:40.471Z,18.77
2023-05-14T05:16:10.730Z,18.77
2023-05-14T05:18:40.988Z,18.80
2023-05-14T05:21:12.132Z,18.83
2023-05-14T05:23:44.845Z,18.87
2023-05-14T05:26:14.853Z,18.86
2023-05-14T05:28:44.965Z,18.87
2023-05-14T05:31:15.786Z,18.84
2023-05-14T05:33:47.381Z,18.77
2023-05-14T05:36:17.454Z,18.77
2023-05-14T05:38:50.090Z,18.82
2023-05-14T05:41:20.783Z,18.78
2023-05-14T05:43:51.137Z,18.77
2023-05-14T05:46:22.194Z,18.80
2023-05-14T05:48:53.426Z,18.91
2023-05-14T05:51:23.663Z,18.96
2023-05-14T05:53:56.287Z,19.10
2023-05-14T05:56:28.157Z,19.27
2023-05-14T05:58:58.185Z,19.41
2023-05-14T06:01:28.298Z,19.60
2023-05-14T06:03:58.784Z,19.68
2023-05-14T06:06:28.903Z,19.70
2023-05-14T06:09:02.192Z,19.79
2023-05-14T06:11:32.248Z,19.85
2023-05-14T06:14:02.288Z,19.89
2023-05-14T06:16:32.353Z,19.90
2023-05-14T06:19:02.551Z,19.93
2023-05-14T06:21:32.678Z,19.91
2023-05-14T06:24:05.484Z,19.92
2023-05-14T06:26:35.504Z,20.06
2023-05-14T06:29:05.932Z,20.13
2023-05-14T06:31:36.044Z,20.09
2023-05-14T06:34:06.371Z,20.11
2023-05-14T06:36:36.397Z,20.04
2023-05-14T06:39:09.256Z,20.18
2023-05-14T06:41:39.292Z,20.26
2023-05-14T06:44:09.517Z,20.33
2023-05-14T06:46:39.943Z,20.41
2023-05-14T06:49:10.309Z,20.59
2023-05-14T06:51:42.073Z,20.68
2023-05-14T06:54:14.878Z,20.75
2023-05-14T06:56:44.988Z,20.86
2023-05-14T06:59:15.303Z,20.94
2023-05-14T07:01:45.688Z,21.04
2023-05-14T07:04:15.864Z,21.21
2023-05-14T07:06:46.235Z,21.26
2023-05-14T07:09:19.172Z,21.36
2023-05-14T07:11:52.041Z,21.48
2023-05-14T07:14:22.540Z,21.59
2023-05-14T07:16:53.054Z,21.71
2023-05-14T07:19:23.252Z,21.94
2023-05-14T07:21:54.118Z,22.27
2023-05-14T07:24:27.178Z,22.50
2023-05-14T07:26:57.556Z,22.78
2023-05-14T07:29:28.610Z,23.01
2023-05-14T07:31:58.843Z,23.05
2023-05-14T07:34:28.987Z,22.98
2023-05-14T07:36:59.425Z,23.11
2023-05-14T07:39:32.080Z,23.25
2023-05-14T07:42:03.658Z,23.32
2023-05-14T07:44:33.801Z,23.23
2023-05-14T07:47:04.439Z,23.20
2023-05-14T07:49:34.681Z,23.20
2023-05-14T07:52:04.888Z,23.37
2023-05-14T07:54:37.724Z,23.54
2023-05-14T07:57:08.540Z,23.61
2023-05-14T07:59:38.752Z,23.71
2023-05-14T08:02:10.352Z,23.84
2023-05-14T08:04:40.623Z,24.04
2023-05-14T08:07:10.788Z,24.08
2023-05-14T08:09:43.464Z,23.86
2023-05-14T08:12:13.536Z,23.75
2023-05-14T08:14:43.875Z,23.75
2023-05-14T08:17:14.108Z,23.70
2023-05-14T08:19:44.290Z,23.69
2023-05-14T08:22:14.374Z,23.75
2023-05-14T08:24:47.101Z,24.06
2023-05-14T08:27:17.357Z,24.45
2023-05-14T08:29:47.532Z,24.76
2023-05-14T08:32:23.518Z,24.81
2023-05-14T08:34:54.392Z,24.79
2023-05-14T08:37:24.484Z,24.74
2023-05-14T08:39:57.248Z,24.76
2023-05-14T08:42:28.072Z,24.82
2023-05-14T08:45:04.169Z,24.77
2023-05-14T08:47:34.849Z,24.95
2023-05-14T08:50:07.615Z,25.36
2023-05-14T08:52:38.625Z,25.27
2023-05-14T08:55:12.811Z,26.16
2023-05-14T08:57:43.331Z,26.90
2023-05-14T09:00:15.800Z,27.50
2023-05-14T09:02:49.481Z,27.86
2023-05-14T09:05:21.841Z,28.12
2023-05-14T09:07:52.030Z,28.28
2023-05-14T09:10:25.124Z,28.30
2023-05-14T09:12:55.490Z,28.66
2023-05-14T09:15:29.343Z,28.93
2023-05-14T09:18:00.112Z,29.64
2023-05-14T09:20:30.424Z,30.23
2023-05-14T09:23:01.843Z,30.61
2023-05-14T09:25:36.364Z,30.95
2023-05-14T09:28:09.851Z,31.12
2023-05-14T09:30:40.774Z,31.01
2023-05-14T09:33:11.120Z,30.98
2023-05-14T09:35:43.525Z,31.00
2023-05-14T09:38:14.513Z,31.37
2023-05-14T09:40:48.822Z,31.84
2023-05-14T09:43:18.947Z,32.15
2023-05-14T09:45:49.189Z,32.39
2023-05-14T09:48:19.376Z,32.43
2023-05-14T09:50:50.031Z,32.69
2023-05-14T09:53:20.177Z,33.17
2023-05-14T09:55:52.930Z,33.64
2023-05-14T09:58:23.059Z,33.93
2023-05-14T10:00:54.807Z,34.02
2023-05-14T10:03:28.226Z,33.90
2023-05-14T10:06:01.563Z,33.79
2023-05-14T10:08:37.377Z,33.47
2023-05-14T10:11:15.056Z,33.52
2023-05-14T10:13:49.582Z,33.43
2023-05-14T10:16:24.756Z,33.06
2023-05-14T10:18:59.540Z,32.93
2023-05-14T10:21:32.886Z,32.21
2023-05-14T10:24:03.196Z,31.38
2023-05-14T10:26:37.934Z,31.46
2023-05-14T10:29:08.320Z,30.51
2023-05-14T10:31:53.916Z,29.19
2023-05-14T10:34:40.900Z,29.73
2023-05-14T10:37:12.975Z,31.14
2023-05-14T10:39:48.191Z,30.61
2023-05-14T10:42:23.405Z,29.28
2023-05-14T10:44:58.933Z,27.94
2023-05-14T10:47:29.695Z,27.02
2023-05-14T10:50:01.553Z,26.43
2023-05-14T10:52:32.695Z,26.17
2023-05-14T10:55:04.125Z,26.12
2023-05-14T10:57:39.713Z,26.00
2023-05-14T11:00:11.503Z,25.85
2023-05-14T11:02:48.304Z,25.64
2023-05-14T11:05:19.468Z,25.55
2023-05-14T11:07:51.354Z,25.50
2023-05-14T11:10:23.993Z,25.45
2023-05-14T11:12:56.989Z,25.38
2023-05-14T11:15:29.608Z,25.31
2023-05-14T11:17:59.845Z,25.27
2023-05-14T11:20:29.901Z,25.25
2023-05-14T11:23:00.505Z,25.20
2023-05-14T11:25:30.687Z,25.23
2023-05-14T11:28:03.393Z,25.56
2023-05-14T11:30:34.491Z,25.37
2023-05-14T11:33:04.640Z,25.10
2023-05-14T11:35:34.916Z,24.95
2023-05-14T11:38:05.690Z,24.80
2023-05-14T11:40:36.925Z,24.70
2023-05-14T11:43:09.750Z,24.71
2023-05-14T11:45:39.923Z,24.84
2023-05-14T11:48:19.088Z,24.84
2023-05-14T11:50:51.098Z,24.84
2023-05-14T11:53:22.042Z,24.90
2023-05-14T11:55:52.170Z,25.09
2023-05-14T11:58:24.969Z,25.29
2023-05-14T12:00:56.818Z,25.42
2023-05-14T12:03:30.370Z,25.37
2023-05-14T12:06:01.851Z,25.35
2023-05-14T12:08:33.694Z,25.43
2023-05-14T12:11:04.367Z,25.53
2023-05-14T12:13:37.003Z,25.51
2023-05-14T12:16:07.883Z,25.52
2023-05-14T12:18:38.141Z,25.57
2023-05-14T12:21:10.099Z,25.76
2023-05-14T12:23:41.859Z,25.89
2023-05-14T12:26:12.365Z,26.24
2023-05-14T12:28:45.670Z,26.89
2023-05-14T12:31:15.986Z,27.38
2023-05-14T12:33:46.083Z,27.44
2023-05-14T12:36:21.751Z,27.99
2023-05-14T12:38:52.746Z,28.95
2023-05-14T12:41:22.758Z,29.25
2023-05-14T12:43:55.462Z,29.33
2023-05-14T12:46:25.944Z,29.85
2023-05-14T12:48:56.134Z,28.87
2023-05-14T12:51:26.763Z,27.80
2023-05-14T12:53:56.772Z,26.95
2023-05-14T12:56:28.518Z,26.21
2023-05-14T12:59:01.479Z,25.64
2023-05-14T13:01:33.530Z,25.08
2023-05-14T13:04:03.692Z,24.77
2023-05-14T13:06:34.473Z,24.54
2023-05-14T13:09:04.504Z,24.53
2023-05-14T13:11:34.620Z,24.65
2023-05-14T13:14:07.275Z,24.66
2023-05-14T13:16:37.293Z,24.77
2023-05-14T13:19:07.415Z,25.05
2023-05-14T13:21:37.448Z,25.39
2023-05-14T13:24:10.164Z,25.65
2023-05-14T13:26:40.208Z,25.63
2023-05-14T13:29:12.894Z,25.59
2023-05-14T13:31:42.904Z,25.49
2023-05-14T13:34:13.272Z,25.47
2023-05-14T13:36:44.200Z,25.49
2023-05-14T13:39:14.749Z,25.38
2023-05-14T13:41:45.627Z,25.48
2023-05-14T13:44:18.289Z,25.63
2023-05-14T13:46:48.462Z,25.80
2023-05-14T13:49:18.615Z,25.95
2023-05-14T13:51:48.662Z,26.16
2023-05-14T13:54:18.766Z,26.31
2023-05-14T13:56:48.768Z,26.39
2023-05-14T13:59:21.541Z,26.33
2023-05-14T14:01:51.873Z,26.19
2023-05-14T14:04:22.407Z,26.20
2023-05-14T14:06:52.509Z,26.32
2023-05-14T14:09:22.553Z,26.31
2023-05-14T14:11:52.841Z,26.13
2023-05-14T14:14:25.562Z,25.98
2023-05-14T14:16:55.590Z,25.88
2023-05-14T14:19:25.744Z,25.89
2023-05-14T14:22:12.728Z,25.84
2023-05-14T14:24:43.010Z,25.78
2023-05-14T14:27:13.505Z,25.76
2023-05-14T14:29:46.326Z,25.72
2023-05-14T14:32:16.377Z,25.69
2023-05-14T14:34:46.561Z,25.78
2023-05-14T14:37:16.586Z,25.84
2023-05-14T14:39:46.655Z,25.79
2023-05-14T14:42:16.684Z,25.61
2023-05-14T14:44:49.303Z,25.55
2023-05-14T14:47:19.346Z,25.48
2023-05-14T14:49:49.401Z,25.32
2023-05-14T14:52:19.650Z,25.05
2023-05-14T14:54:49.677Z,24.79
2023-05-14T14:57:19.932Z,24.56
2023-05-14T14:59:52.515Z,24.40
2023-05-14T15:02:23.217Z,24.23
2023-05-14T15:04:53.317Z,24.07
2023-05-14T15:07:23.371Z,23.88
2023-05-14T15:09:53.369Z,23.77
2023-05-14T15:12:26.322Z,23.80
2023-05-14T15:14:58.945Z,23.77
2023-05-14T15:17:29.137Z,23.70
2023-05-14T15:22:29.086Z,23.82
2023-05-14T15:24:59.091Z,23.86
2023-05-14T15:27:29.392Z,23.93
2023-05-14T15:30:02.088Z,24.00
2023-05-14T15:32:32.785Z,24.10
2023-05-14T15:35:02.974Z,24.17
2023-05-14T15:37:39.880Z,24.21
2023-05-14T15:40:11.582Z,24.27
2023-05-14T15:42:43.184Z,24.28
2023-05-14T15:45:16.684Z,24.30
2023-05-14T15:47:47.223Z,24.31
2023-05-14T15:50:17.273Z,24.31
2023-05-14T15:52:47.363Z,24.32
2023-05-14T15:55:17.470Z,24.31
2023-05-14T15:57:47.544Z,24.19
2023-05-14T16:00:21.188Z,24.05
2023-05-14T16:02:51.615Z,23.89
2023-05-14T16:05:22.205Z,23.77
2023-05-14T16:07:52.367Z,23.78
2023-05-14T16:10:23.359Z,23.80
2023-05-14T16:12:53.616Z,23.89
2023-05-14T16:15:26.283Z,23.84
2023-05-14T16:17:56.342Z,23.82
2023-05-14T16:20:26.569Z,23.79
2023-05-14T16:22:56.856Z,23.70
2023-05-14T16:25:27.256Z,23.66
2023-05-14T16:27:57.611Z,23.72
2023-05-14T16:30:30.289Z,23.86
2023-05-14T16:33:00.506Z,23.88
2023-05-14T16:35:30.686Z,23.83
2023-05-14T16:38:00.774Z,23.74
2023-05-14T16:40:30.804Z,23.70
2023-05-14T16:43:01.078Z,23.65
2023-05-14T16:45:35.058Z,23.57
2023-05-14T16:48:05.189Z,23.51
2023-05-14T16:50:35.507Z,23.33
2023-05-14T16:53:05.514Z,23.24
2023-05-14T16:55:35.583Z,23.15
2023-05-14T16:58:05.624Z,23.04
2023-05-14T17:00:38.308Z,22.92
2023-05-14T17:03:08.467Z,22.88
2023-05-14T17:05:38.742Z,22.88
2023-05-14T17:08:09.361Z,22.78
2023-05-14T17:10:39.414Z,22.78
2023-05-14T17:13:09.533Z,22.80
2023-05-14T17:15:42.699Z,22.77
2023-05-14T17:18:13.126Z,22.80
2023-05-14T17:20:43.273Z,22.85
2023-05-14T17:23:13.687Z,22.89
2023-05-14T17:25:43.699Z,22.89
2023-05-14T17:28:13.810Z,22.92
2023-05-14T17:30:46.762Z,22.89
2023-05-14T17:33:16.875Z,22.89
2023-05-14T17:35:47.049Z,22.84
2023-05-14T17:38:17.338Z,22.78
2023-05-14T17:40:47.361Z,22.71
2023-05-14T17:43:17.740Z,22.67
2023-05-14T17:45:54.529Z,22.62
2023-05-14T17:48:25.052Z,22.58
2023-05-14T17:50:55.182Z,22.57
2023-05-14T17:53:25.254Z,22.53
2023-05-14T17:55:58.838Z,22.49
2023-05-14T17:58:28.948Z,22.39
2023-05-14T18:01:01.687Z,22.29
2023-05-14T18:03:32.194Z,22.25
2023-05-14T18:06:02.393Z,22.26
2023-05-14T18:08:32.595Z,22.22
2023-05-14T18:11:02.670Z,22.19
2023-05-14T18:13:32.800Z,22.18
2023-05-14T18:16:05.664Z,22.15
2023-05-14T18:18:35.849Z,22.15
2023-05-14T18:21:06.075Z,22.11
2023-05-14T18:23:36.117Z,22.07
2023-05-14T18:26:06.496Z,22.04
2023-05-14T18:28:36.647Z,21.99
2023-05-14T18:31:09.624Z,21.97
2023-05-14T18:33:39.720Z,21.93
2023-05-14T18:36:09.870Z,21.88
2023-05-14T18:38:40.941Z,21.81
2023-05-14T18:41:11.191Z,21.75
2023-05-14T18:43:41.360Z,21.68
2023-05-14T18:46:14.305Z,21.63
2023-05-14T18:48:44.486Z,21.60
2023-05-14T18:51:14.686Z,21.59
2023-05-14T18:53:44.909Z,21.57
2023-05-14T18:56:14.954Z,21.50
2023-05-14T18:58:44.995Z,21.42
2023-05-14T19:01:17.970Z,21.34
2023-05-14T19:03:48.403Z,21.27
2023-05-14T19:06:18.735Z,21.21
2023-05-14T19:08:48.872Z,21.13
2023-05-14T19:11:19.201Z,21.05
2023-05-14T19:13:49.777Z,20.94
2023-05-14T19:16:22.551Z,20.85
2023-05-14T19:18:52.838Z,20.77
2023-05-14T19:21:23.105Z,20.68
2023-05-14T19:23:53.346Z,20.60
2023-05-14T19:26:23.581Z,20.56
2023-05-14T19:28:58.475Z,20.48
2023-05-14T19:31:31.395Z,20.39
2023-05-14T19:34:01.507Z,20.32
2023-05-14T19:36:31.982Z,20.20
2023-05-14T19:39:02.083Z,20.12
2023-05-14T19:41:32.628Z,20.07
2023-05-14T19:44:02.648Z,20.04
2023-05-14T19:46:35.669Z,19.97
2023-05-14T19:49:05.872Z,19.90
2023-05-14T19:51:36.001Z,19.83
2023-05-14T19:54:06.929Z,19.78
2023-05-14T19:56:38.450Z,19.71
2023-05-14T19:59:08.512Z,19.66
2023-05-14T20:01:41.546Z,19.62
2023-05-14T20:04:11.675Z,19.58
2023-05-14T20:06:41.822Z,19.55
2023-05-14T20:09:11.940Z,19.47
2023-05-14T20:11:42.436Z,19.37
2023-05-14T20:14:12.522Z,19.27
2023-05-14T20:16:45.256Z,19.21
2023-05-14T20:19:16.525Z,19.16
2023-05-14T20:21:46.719Z,19.13
2023-05-14T20:24:16.819Z,19.11
2023-05-14T20:26:46.888Z,19.07
2023-05-14T20:29:17.260Z,19.01
2023-05-14T20:31:49.915Z,18.99
2023-05-14T20:34:20.449Z,18.94
2023-05-14T20:36:50.944Z,18.91
2023-05-14T20:39:21.242Z,18.84
2023-05-14T20:41:51.354Z,18.82
2023-05-14T20:44:21.438Z,18.79
2023-05-14T20:46:54.218Z,18.78
2023-05-14T20:49:24.421Z,18.79
2023-05-14T20:51:54.549Z,18.73
2023-05-14T20:54:24.638Z,18.69
2023-05-14T20:56:54.713Z,18.62
2023-05-14T20:59:24.742Z,18.57
2023-05-14T21:01:57.450Z,18.53
2023-05-14T21:04:27.668Z,18.49
2023-05-14T21:06:57.892Z,18.48
2023-05-14T21:09:28.105Z,18.46
2023-05-14T21:11:58.229Z,18.44
2023-05-14T21:14:28.354Z,18.41
2023-05-14T21:17:01.055Z,18.37
2023-05-14T21:19:31.189Z,18.31
2023-05-14T21:22:01.244Z,18.24
2023-05-14T21:24:34.332Z,18.21
2023-05-14T21:27:04.448Z,18.17
2023-05-14T21:29:34.555Z,18.15
2023-05-14T21:32:07.964Z,18.11
2023-05-14T21:34:38.085Z,18.07
2023-05-14T21:37:08.728Z,18.03
2023-05-14T21:39:38.847Z,18.00
2023-05-14T21:42:09.786Z,17.96
2023-05-14T21:44:39.825Z,17.92
2023-05-14T21:47:12.522Z,17.84
2023-05-14T21:49:43.208Z,17.81
2023-05-14T21:52:13.449Z,17.77
2023-05-14T21:54:43.577Z,17.72
2023-05-14T21:57:13.685Z,17.66
2023-05-14T21:59:43.755Z,17.60
2023-05-14T22:02:16.574Z,17.54
2023-05-14T22:04:46.995Z,17.49
2023-05-14T22:07:17.091Z,17.44
2023-05-14T22:09:47.136Z,17.41
2023-05-14T22:12:17.163Z,17.36
2023-05-14T22:14:47.150Z,17.34
2023-05-14T22:17:19.886Z,17.28
2023-05-14T22:19:49.971Z,17.26
2023-05-14T22:22:20.000Z,17.25
2023-05-14T22:24:50.006Z,17.23
2023-05-14T22:27:20.309Z,17.25
2023-05-14T22:29:50.391Z,17.26
2023-05-14T22:32:23.270Z,17.22
2023-05-14T22:34:53.498Z,17.19
2023-05-14T22:37:23.542Z,17.15
2023-05-14T22:39:53.616Z,17.12
2023-05-14T22:42:23.783Z,17.12
2023-05-14T22:44:53.803Z,17.11
2023-05-14T22:47:27.040Z,17.09
2023-05-14T22:49:57.124Z,17.07
2023-05-14T22:52:28.416Z,17.05
2023-05-14T22:54:58.414Z,17.05
2023-05-14T22:57:28.496Z,17.02
2023-05-14T22:59:58.446Z,16.99
2023-05-14T23:02:31.142Z,16.94
2023-05-14T23:05:01.153Z,16.88
2023-05-14T23:07:31.216Z,16.84
2023-05-14T23:10:01.228Z,16.79
2023-05-14T23:12:31.357Z,16.73
2023-05-14T23:15:01.851Z,16.67
2023-05-14T23:17:35.424Z,16.64
2023-05-14T23:20:06.914Z,16.62
2023-05-14T23:22:36.965Z,16.60
2023-05-14T23:25:08.136Z,16.54
2023-05-14T23:27:38.240Z,16.51
2023-05-14T23:30:09.377Z,16.50
2023-05-14T23:32:42.078Z,16.46
2023-05-14T23:35:12.698Z,16.44
2023-05-14T23:37:47.566Z,16.46
2023-05-14T23:40:18.194Z,16.48
2023-05-14T23:42:48.324Z,16.45
2023-05-14T23:45:18.502Z,16.43
2023-05-14T23:47:51.744Z,16.39
2023-05-14T23:50:22.063Z,16.36
2023-05-14T23:52:54.695Z,16.31
2023-05-14T23:55:25.170Z,16.26
2023-05-14T23:57:55.500Z,16.24
